createdAt,value
2022-08-23T00:00:13.464Z,3.12
2022-08-23T00:01:15.608Z,3.96
2022-08-23T00:02:23.477Z,2.89
2022-08-23T00:03:24.740Z,2.15
2022-08-23T00:04:32.162Z,3.22
2022-08-23T00:05:32.164Z,3.92
2022-08-23T00:06:35.102Z,2.54
2022-08-23T00:07:38.825Z,3.19
2022-08-23T00:08:44.829Z,2.72
2022-08-23T00:09:46.014Z,3.59
2022-08-23T00:10:48.923Z,2.88
2022-08-23T00:11:51.499Z,4.00
2022-08-23T00:12:54.129Z,3.25
2022-08-23T00:13:56.796Z,2.87
2022-08-23T00:14:59.465Z,3.00
2022-08-23T00:16:02.249Z,2.96
2022-08-23T00:17:06.132Z,3.42
2022-08-23T00:18:08.700Z,2.49
2022-08-23T00:19:11.263Z,2.69
2022-08-23T00:20:15.578Z,2.62
2022-08-23T00:21:18.380Z,2.84
2022-08-23T00:22:21.016Z,2.95
2022-08-23T00:23:23.643Z,2.75
2022-08-23T00:24:26.253Z,2.63
2022-08-23T00:25:28.924Z,2.79
2022-08-23T00:26:31.653Z,2.77
2022-08-23T00:27:34.259Z,2.23
2022-08-23T00:28:36.828Z,2.55
2022-08-23T00:29:39.393Z,2.39
2022-08-23T00:30:42.329Z,2.19
2022-08-23T00:31:44.936Z,2.42
2022-08-23T00:32:47.543Z,2.95
2022-08-23T00:33:50.128Z,3.29
2022-08-23T00:34:52.647Z,2.68
2022-08-23T00:35:55.408Z,2.77
2022-08-23T00:36:58.383Z,2.48
2022-08-23T00:38:31.776Z,2.55
2022-08-23T00:39:05.621Z,2.58
2022-08-23T00:40:08.479Z,3.27
2022-08-23T00:41:11.216Z,3.32
2022-08-23T00:42:14.190Z,3.67
2022-08-23T00:43:16.715Z,3.03
2022-08-23T00:44:19.295Z,2.39
2022-08-23T00:45:21.992Z,2.96
2022-08-23T00:46:26.263Z,3.35
2022-08-23T00:47:28.868Z,2.91
2022-08-23T00:48:31.435Z,3.23
2022-08-23T00:49:34.096Z,2.88
2022-08-23T00:50:37.080Z,2.65
2022-08-23T00:51:52.093Z,2.86
2022-08-23T00:52:44.111Z,2.25
2022-08-23T00:53:46.720Z,2.91
2022-08-23T00:54:49.578Z,3.56
2022-08-23T00:55:52.168Z,3.13
2022-08-23T00:56:55.259Z,2.30
2022-08-23T00:57:58.049Z,2.56
2022-08-23T00:59:00.903Z,2.29
2022-08-23T01:00:03.827Z,2.44
2022-08-23T01:01:06.387Z,2.04
2022-08-23T01:02:09.299Z,4.12
2022-08-23T01:03:12.533Z,1.97
2022-08-23T01:04:15.423Z,1.95
2022-08-23T01:05:18.056Z,2.21
2022-08-23T01:06:21.108Z,2.33
2022-08-23T01:07:25.723Z,3.01
2022-08-23T01:08:28.292Z,1.85
2022-08-23T01:09:30.959Z,1.86
2022-08-23T01:10:33.936Z,2.24
2022-08-23T01:11:36.501Z,2.23
2022-08-23T01:12:39.068Z,2.02
2022-08-23T01:13:42.151Z,2.02
2022-08-23T01:14:45.845Z,2.11
2022-08-23T01:15:48.611Z,1.83
2022-08-23T01:16:51.384Z,1.71
2022-08-23T01:17:53.951Z,1.99
2022-08-23T01:18:56.545Z,1.75
2022-08-23T01:19:59.043Z,2.47
2022-08-23T01:21:02.367Z,2.12
2022-08-23T01:22:05.712Z,2.33
2022-08-23T01:23:08.427Z,2.94
2022-08-23T01:24:19.257Z,2.35
2022-08-23T01:25:15.640Z,2.39
2022-08-23T01:26:22.108Z,3.44
2022-08-23T01:27:24.528Z,2.14
2022-08-23T01:28:27.198Z,2.53
2022-08-23T01:29:29.764Z,2.40
2022-08-23T01:30:33.280Z,2.55
2022-08-23T01:31:35.783Z,2.72
2022-08-23T01:32:38.269Z,2.99
2022-08-23T01:33:40.849Z,2.35
2022-08-23T01:34:45.442Z,2.65
2022-08-23T01:35:48.093Z,2.96
2022-08-23T01:36:51.108Z,3.75
2022-08-23T01:37:53.679Z,2.65
2022-08-23T01:38:56.354Z,2.00
2022-08-23T01:39:59.091Z,2.91
2022-08-23T01:41:02.095Z,2.24
2022-08-23T01:42:07.599Z,2.67
2022-08-23T01:43:09.686Z,2.66
2022-08-23T01:44:12.250Z,2.66
2022-08-23T01:45:14.821Z,2.63
2022-08-23T01:46:18.820Z,2.71
2022-08-23T01:47:21.386Z,2.23
2022-08-23T01:48:23.912Z,3.49
2022-08-23T01:49:26.624Z,2.26
2022-08-23T01:50:29.841Z,2.72
2022-08-23T01:51:32.574Z,3.86
2022-08-23T01:52:35.147Z,2.57
2022-08-23T01:53:37.813Z,3.51
2022-08-23T01:54:40.379Z,2.73
2022-08-23T01:55:42.944Z,2.71
2022-08-23T01:56:45.719Z,2.16
2022-08-23T01:57:48.482Z,2.30
2022-08-23T01:58:52.347Z,2.68
2022-08-23T01:59:54.954Z,2.04
2022-08-23T02:00:58.041Z,2.33
2022-08-23T02:02:01.173Z,2.02
2022-08-23T02:03:04.295Z,2.09
2022-08-23T02:04:06.861Z,2.17
2022-08-23T02:05:09.531Z,1.87
2022-08-23T02:06:12.868Z,2.65
2022-08-23T02:07:15.487Z,2.29
2022-08-23T02:08:18.148Z,2.43
2022-08-23T02:09:20.638Z,2.20
2022-08-23T02:10:24.514Z,2.72
2022-08-23T02:11:27.076Z,1.82
2022-08-23T02:12:29.571Z,2.01
2022-08-23T02:13:32.110Z,2.05
2022-08-23T02:14:34.677Z,2.42
2022-08-23T02:15:37.555Z,3.72
2022-08-23T02:16:40.527Z,3.07
2022-08-23T02:17:44.431Z,2.72
2022-08-23T02:18:47.093Z,2.28
2022-08-23T02:19:49.675Z,3.17
2022-08-23T02:20:52.738Z,3.20
2022-08-23T02:21:56.026Z,2.31
2022-08-23T02:22:59.202Z,2.66
2022-08-23T02:24:01.991Z,3.34
2022-08-23T02:25:06.487Z,2.46
2022-08-23T02:26:09.740Z,2.62
2022-08-23T02:27:12.296Z,2.71
2022-08-23T02:28:14.854Z,2.77
2022-08-23T02:29:17.474Z,3.02
2022-08-23T02:30:20.550Z,2.58
2022-08-23T02:31:23.145Z,2.61
2022-08-23T02:32:27.550Z,2.18
2022-08-23T02:33:30.198Z,2.60
2022-08-23T02:34:33.378Z,2.48
2022-08-23T02:35:35.946Z,2.82
2022-08-23T02:36:38.882Z,3.08
2022-08-23T02:37:41.489Z,2.31
2022-08-23T02:38:44.055Z,2.65
2022-08-23T02:39:46.669Z,2.85
2022-08-23T02:40:52.844Z,2.54
2022-08-23T02:41:54.624Z,2.80
2022-08-23T02:42:57.078Z,3.12
2022-08-23T02:43:59.655Z,2.29
2022-08-23T02:45:02.227Z,2.80
2022-08-23T02:46:05.095Z,3.13
2022-08-23T02:47:07.671Z,2.38
2022-08-23T02:48:10.332Z,2.45
2022-08-23T02:49:13.003Z,2.49
2022-08-23T02:50:16.390Z,2.42
2022-08-23T02:51:19.367Z,2.84
2022-08-23T02:52:21.932Z,2.14
2022-08-23T02:53:24.602Z,2.05
2022-08-23T02:54:27.170Z,2.42
2022-08-23T02:55:29.744Z,2.03
2022-08-23T02:56:32.404Z,2.51
2022-08-23T02:57:34.972Z,2.33
2022-08-23T02:58:37.484Z,1.83
2022-08-23T02:59:40.002Z,1.58
2022-08-23T03:00:42.784Z,2.74
2022-08-23T03:01:45.752Z,2.43
2022-08-23T03:02:48.377Z,2.35
2022-08-23T03:03:50.991Z,3.23
2022-08-23T03:04:53.757Z,2.34
2022-08-23T03:05:56.326Z,2.71
2022-08-23T03:07:00.836Z,1.76
2022-08-23T03:08:03.344Z,1.89
2022-08-23T03:09:05.971Z,1.59
2022-08-23T03:10:09.826Z,2.20
2022-08-23T03:11:12.434Z,2.43
2022-08-23T03:12:15.107Z,2.31
2022-08-23T03:13:17.780Z,2.25
2022-08-23T03:14:20.442Z,1.90
2022-08-23T03:15:23.520Z,2.08
2022-08-23T03:16:26.810Z,1.86
2022-08-23T03:17:29.784Z,1.99
2022-08-23T03:18:32.348Z,1.89
2022-08-23T03:19:34.918Z,1.71
2022-08-23T03:20:37.790Z,1.91
2022-08-23T03:21:40.459Z,2.15
2022-08-23T03:22:48.285Z,2.02
2022-08-23T03:23:49.339Z,2.44
2022-08-23T03:24:51.947Z,1.82
2022-08-23T03:25:54.513Z,1.79
2022-08-23T03:26:57.533Z,1.82
2022-08-23T03:28:00.328Z,2.44
2022-08-23T03:29:03.138Z,2.14
2022-08-23T03:30:05.815Z,1.93
2022-08-23T03:31:10.284Z,2.27
2022-08-23T03:32:12.987Z,1.96
2022-08-23T03:33:17.354Z,2.06
2022-08-23T03:34:19.963Z,2.15
2022-08-23T03:35:22.576Z,2.51
2022-08-23T03:36:28.276Z,1.94
2022-08-23T03:37:31.252Z,2.28
2022-08-23T03:38:33.814Z,1.94
2022-08-23T03:39:36.386Z,1.87
2022-08-23T03:40:39.287Z,1.65
2022-08-23T03:41:41.827Z,1.71
2022-08-23T03:42:44.449Z,1.91
2022-08-23T03:43:47.223Z,2.14
2022-08-23T03:44:49.835Z,2.51
2022-08-23T03:45:55.371Z,2.26
2022-08-23T03:46:58.306Z,1.83
2022-08-23T03:48:01.819Z,1.44
2022-08-23T03:49:06.142Z,1.84
2022-08-23T03:50:09.075Z,2.17
2022-08-23T03:51:12.095Z,1.94
2022-08-23T03:52:14.766Z,1.79
2022-08-23T03:53:17.743Z,1.75
2022-08-23T03:54:20.316Z,2.20
2022-08-23T03:55:24.715Z,2.13
2022-08-23T03:56:27.619Z,1.94
2022-08-23T03:57:30.208Z,1.71
2022-08-23T03:58:32.936Z,2.07
2022-08-23T03:59:35.600Z,1.86
2022-08-23T04:00:38.536Z,1.69
2022-08-23T04:01:41.926Z,1.84
2022-08-23T04:02:44.844Z,1.84
2022-08-23T04:03:47.818Z,1.88
2022-08-23T04:04:50.485Z,2.62
2022-08-23T04:05:53.156Z,2.27
2022-08-23T04:06:56.133Z,2.07
2022-08-23T04:07:58.808Z,2.00
2022-08-23T04:09:01.757Z,1.86
2022-08-23T04:10:04.711Z,1.69
2022-08-23T04:11:07.319Z,1.94
2022-08-23T04:12:11.988Z,1.79
2022-08-23T04:13:14.296Z,2.15
2022-08-23T04:14:16.859Z,2.04
2022-08-23T04:15:19.527Z,1.92
2022-08-23T04:16:22.912Z,1.58
2022-08-23T04:17:25.480Z,1.91
2022-08-23T04:18:28.259Z,1.59
2022-08-23T04:19:30.928Z,2.01
2022-08-23T04:20:34.513Z,2.27
2022-08-23T04:21:37.184Z,2.57
2022-08-23T04:22:40.159Z,1.86
2022-08-23T04:23:42.832Z,3.16
2022-08-23T04:24:45.496Z,2.45
2022-08-23T04:25:48.063Z,1.59
2022-08-23T04:26:50.841Z,1.77
2022-08-23T04:27:53.504Z,2.49
2022-08-23T04:28:57.067Z,2.33
2022-08-23T04:29:59.732Z,1.91
2022-08-23T04:31:02.613Z,2.31
2022-08-23T04:32:07.823Z,2.26
2022-08-23T04:33:12.557Z,2.37
2022-08-23T04:34:15.108Z,1.97
2022-08-23T04:35:19.566Z,2.46
2022-08-23T04:36:23.347Z,2.01
2022-08-23T04:37:26.440Z,1.75
2022-08-23T04:38:29.012Z,2.43
2022-08-23T04:39:31.630Z,2.41
2022-08-23T04:40:36.399Z,1.65
2022-08-23T04:41:39.060Z,3.02
2022-08-23T04:42:41.940Z,2.28
2022-08-23T04:43:44.867Z,1.89
2022-08-23T04:44:47.476Z,2.03
2022-08-23T04:45:50.015Z,2.07
2022-08-23T04:46:52.956Z,2.89
2022-08-23T04:47:55.639Z,1.95
2022-08-23T04:48:58.258Z,1.83
2022-08-23T04:50:00.969Z,1.97
2022-08-23T04:51:03.553Z,4.14
2022-08-23T04:52:06.119Z,2.64
2022-08-23T04:53:08.737Z,2.48
2022-08-23T04:54:11.398Z,2.08
2022-08-23T04:55:15.824Z,2.47
2022-08-23T04:56:20.177Z,2.28
2022-08-23T04:57:22.992Z,2.24
2022-08-23T04:58:25.516Z,2.15
2022-08-23T04:59:28.125Z,2.13
2022-08-23T05:00:31.397Z,1.71
2022-08-23T05:01:34.280Z,2.35
2022-08-23T05:02:36.951Z,2.05
2022-08-23T05:03:39.620Z,2.64
2022-08-23T05:04:42.188Z,2.39
2022-08-23T05:05:44.752Z,3.01
2022-08-23T05:06:47.624Z,2.64
2022-08-23T05:07:50.258Z,2.10
2022-08-23T05:08:52.860Z,2.56
2022-08-23T05:09:55.431Z,2.83
2022-08-23T05:11:00.078Z,2.55
2022-08-23T05:12:02.815Z,2.45
2022-08-23T05:13:05.383Z,3.05
2022-08-23T05:14:08.081Z,3.15
2022-08-23T05:15:10.620Z,2.69
2022-08-23T05:16:14.991Z,2.44
2022-08-23T05:17:17.595Z,2.93
2022-08-23T05:18:20.161Z,3.43
2022-08-23T05:19:22.744Z,3.10
2022-08-23T05:20:27.161Z,3.60
2022-08-23T05:21:31.239Z,2.97
2022-08-23T05:22:33.809Z,2.56
2022-08-23T05:23:36.783Z,2.61
2022-08-23T05:24:40.069Z,2.35
2022-08-23T05:25:44.249Z,2.59
2022-08-23T05:26:47.524Z,2.67
2022-08-23T05:27:50.151Z,2.46
2022-08-23T05:28:52.757Z,2.60
2022-08-23T05:29:55.361Z,2.78
2022-08-23T05:30:58.224Z,2.61
2022-08-23T05:32:03.058Z,2.45
2022-08-23T05:33:05.727Z,2.97
2022-08-23T05:34:09.639Z,2.81
2022-08-23T05:35:12.292Z,2.25
2022-08-23T05:36:16.188Z,2.75
2022-08-23T05:37:18.762Z,2.49
2022-08-23T05:38:21.428Z,2.72
2022-08-23T05:39:33.025Z,2.93
2022-08-23T05:40:30.305Z,2.65
2022-08-23T05:41:38.289Z,2.25
2022-08-23T05:42:39.545Z,2.21
2022-08-23T05:43:42.144Z,2.67
2022-08-23T05:44:44.635Z,2.45
2022-08-23T05:45:47.177Z,2.53
2022-08-23T05:46:49.993Z,3.49
2022-08-23T05:47:52.515Z,3.29
2022-08-23T05:48:57.029Z,2.30
2022-08-23T05:49:59.732Z,2.35
2022-08-23T05:51:02.363Z,2.01
2022-08-23T05:52:04.969Z,2.85
2022-08-23T05:53:08.338Z,2.39
2022-08-23T05:54:10.991Z,2.47
2022-08-23T05:55:13.556Z,2.86
2022-08-23T05:56:17.062Z,2.28
2022-08-23T05:57:20.025Z,3.67
2022-08-23T05:58:22.652Z,3.41
2022-08-23T05:59:25.233Z,2.70
2022-08-23T06:00:31.617Z,2.50
2022-08-23T06:01:32.844Z,2.31
2022-08-23T06:02:35.538Z,2.81
2022-08-23T06:03:38.801Z,2.61
2022-08-23T06:04:41.475Z,2.44
2022-08-23T06:05:44.137Z,2.40
2022-08-23T06:06:47.115Z,2.38
2022-08-23T06:07:49.686Z,2.31
2022-08-23T06:08:52.353Z,2.87
2022-08-23T06:09:54.877Z,2.26
2022-08-23T06:10:57.793Z,2.66
2022-08-23T06:12:00.461Z,2.76
2022-08-23T06:13:03.029Z,3.13
2022-08-23T06:14:05.553Z,2.25
2022-08-23T06:15:08.466Z,2.67
2022-08-23T06:16:14.992Z,2.47
2022-08-23T06:17:16.262Z,2.48
2022-08-23T06:18:18.787Z,2.79
2022-08-23T06:19:21.398Z,3.75
2022-08-23T06:20:24.592Z,2.45
2022-08-23T06:21:28.167Z,2.62
2022-08-23T06:22:31.184Z,2.59
2022-08-23T06:23:33.923Z,2.61
2022-08-23T06:24:36.542Z,2.23
2022-08-23T06:25:39.458Z,2.86
2022-08-23T06:26:42.397Z,2.37
2022-08-23T06:27:45.106Z,2.15
2022-08-23T06:28:50.853Z,2.58
2022-08-23T06:29:52.798Z,3.96
2022-08-23T06:30:55.935Z,2.21
2022-08-23T06:31:58.858Z,2.52
2022-08-23T06:33:01.380Z,2.28
2022-08-23T06:34:04.040Z,1.89
2022-08-23T06:35:38.269Z,2.08
2022-08-23T06:36:11.993Z,2.98
2022-08-23T06:37:14.554Z,2.35
2022-08-23T06:38:17.125Z,2.71
2022-08-23T06:39:19.751Z,2.37
2022-08-23T06:40:23.889Z,2.55
2022-08-23T06:41:27.998Z,2.25
2022-08-23T06:42:39.021Z,2.29
2022-08-23T06:43:35.794Z,2.43
2022-08-23T06:44:38.423Z,3.05
2022-08-23T06:45:42.932Z,4.02
2022-08-23T06:46:47.742Z,2.82
2022-08-23T06:47:50.592Z,2.29
2022-08-23T06:48:53.198Z,2.55
2022-08-23T06:49:58.177Z,2.26
2022-08-23T06:51:00.628Z,2.69
2022-08-23T06:52:04.622Z,2.67
2022-08-23T06:53:10.098Z,1.99
2022-08-23T06:54:11.702Z,2.78
2022-08-23T06:55:14.681Z,3.11
2022-08-23T06:56:18.371Z,2.06
2022-08-23T06:57:20.938Z,2.53
2022-08-23T06:58:23.610Z,2.13
2022-08-23T06:59:26.176Z,2.23
2022-08-23T07:00:30.035Z,2.29
2022-08-23T07:01:48.726Z,2.43
2022-08-23T07:02:37.782Z,2.97
2022-08-23T07:03:40.742Z,2.44
2022-08-23T07:04:43.281Z,3.05
2022-08-23T07:05:45.834Z,2.33
2022-08-23T07:06:48.751Z,2.42
2022-08-23T07:07:51.318Z,2.69
2022-08-23T07:08:53.807Z,2.13
2022-08-23T07:09:56.306Z,2.54
2022-08-23T07:10:59.125Z,1.75
2022-08-23T07:12:01.690Z,2.15
2022-08-23T07:13:04.171Z,2.13
2022-08-23T07:14:06.734Z,1.93
2022-08-23T07:15:09.488Z,1.87
2022-08-23T07:16:12.856Z,2.65
2022-08-23T07:17:15.856Z,1.66
2022-08-23T07:18:18.531Z,2.38
2022-08-23T07:19:21.226Z,2.17
2022-08-23T07:20:25.088Z,1.99
2022-08-23T07:21:28.126Z,1.80
2022-08-23T07:22:30.844Z,2.26
2022-08-23T07:23:33.622Z,2.28
2022-08-23T07:24:36.178Z,2.03
2022-08-23T07:25:38.779Z,3.17
2022-08-23T07:26:42.230Z,3.71
2022-08-23T07:27:44.802Z,2.35
2022-08-23T07:28:47.467Z,2.37
2022-08-23T07:29:50.852Z,2.36
2022-08-23T07:30:53.847Z,1.94
2022-08-23T07:31:56.467Z,1.87
2022-08-23T07:32:59.297Z,2.05
2022-08-23T07:34:02.452Z,2.45
2022-08-23T07:35:05.019Z,1.73
2022-08-23T07:36:08.059Z,2.83
2022-08-23T07:37:15.242Z,2.87
2022-08-23T07:38:15.191Z,2.16
2022-08-23T07:39:17.850Z,2.35
2022-08-23T07:40:21.091Z,2.17
2022-08-23T07:41:24.175Z,2.27
2022-08-23T07:42:27.175Z,2.13
2022-08-23T07:43:29.717Z,2.47
2022-08-23T07:44:34.299Z,2.49
2022-08-23T07:45:36.785Z,2.07
2022-08-23T07:46:40.290Z,2.19
2022-08-23T07:47:48.240Z,2.61
2022-08-23T07:48:55.195Z,2.69
2022-08-23T07:49:51.978Z,2.48
2022-08-23T07:50:57.738Z,2.22
2022-08-23T07:51:59.668Z,2.07
2022-08-23T07:53:02.280Z,1.98
2022-08-23T07:54:04.843Z,2.40
2022-08-23T07:55:07.422Z,2.62
2022-08-23T07:56:10.789Z,2.21
2022-08-23T07:57:13.366Z,2.33
2022-08-23T07:58:15.935Z,2.51
2022-08-23T07:59:18.630Z,2.52
2022-08-23T08:00:21.476Z,1.75
2022-08-23T08:01:24.153Z,2.71
2022-08-23T08:02:27.764Z,2.35
2022-08-23T08:03:30.332Z,2.83
2022-08-23T08:04:32.922Z,3.38
2022-08-23T08:05:35.541Z,3.17
2022-08-23T08:06:38.570Z,3.08
2022-08-23T08:07:41.493Z,2.80
2022-08-23T08:08:44.083Z,2.93
2022-08-23T08:09:46.618Z,3.23
2022-08-23T08:10:49.355Z,3.61
2022-08-23T08:11:51.970Z,3.26
2022-08-23T08:12:56.264Z,3.06
2022-08-23T08:13:58.831Z,4.05
2022-08-23T08:15:01.417Z,3.51
2022-08-23T08:16:04.370Z,4.19
2022-08-23T08:17:07.215Z,3.83
2022-08-23T08:18:09.924Z,3.19
2022-08-23T08:19:12.488Z,3.23
2022-08-23T08:20:16.900Z,3.24
2022-08-23T08:21:19.771Z,3.43
2022-08-23T08:22:22.339Z,3.01
2022-08-23T08:23:25.115Z,2.87
2022-08-23T08:24:27.783Z,3.50
2022-08-23T08:25:30.344Z,3.05
2022-08-23T08:26:33.325Z,2.83
2022-08-23T08:27:35.847Z,3.65
2022-08-23T08:28:38.662Z,3.09
2022-08-23T08:29:41.332Z,4.10
2022-08-23T08:30:44.130Z,3.50
2022-08-23T08:31:46.775Z,3.44
2022-08-23T08:32:49.767Z,3.70
2022-08-23T08:33:52.273Z,3.25
2022-08-23T08:34:54.987Z,3.23
2022-08-23T08:35:58.189Z,3.66
2022-08-23T08:37:02.269Z,3.72
2022-08-23T08:38:05.275Z,3.51
2022-08-23T08:39:07.833Z,3.48
2022-08-23T08:40:13.080Z,3.28
2022-08-23T08:41:16.023Z,2.98
2022-08-23T08:42:19.608Z,3.36
2022-08-23T08:43:22.315Z,3.65
2022-08-23T08:44:25.256Z,2.99
2022-08-23T08:45:27.928Z,3.34
2022-08-23T08:46:31.272Z,3.99
2022-08-23T08:47:33.912Z,3.27
2022-08-23T08:48:36.563Z,3.16
2022-08-23T08:49:39.117Z,3.58
2022-08-23T08:50:42.198Z,3.98
2022-08-23T08:51:44.861Z,3.27
2022-08-23T08:52:47.532Z,3.21
2022-08-23T08:53:50.096Z,3.11
2022-08-23T08:54:53.155Z,3.44
2022-08-23T08:55:56.158Z,3.54
2022-08-23T08:56:59.727Z,3.22
2022-08-23T08:58:02.639Z,3.29
2022-08-23T08:59:05.695Z,2.75
2022-08-23T09:00:09.288Z,3.29
2022-08-23T09:01:12.059Z,2.77
2022-08-23T09:02:16.936Z,3.41
2022-08-23T09:03:20.233Z,3.99
2022-08-23T09:04:23.306Z,3.32
2022-08-23T09:05:25.919Z,3.21
2022-08-23T09:06:28.994Z,3.23
2022-08-23T09:07:31.873Z,3.25
2022-08-23T09:08:35.187Z,3.67
2022-08-23T09:09:37.838Z,3.36
2022-08-23T09:10:41.205Z,3.51
2022-08-23T09:11:43.895Z,3.51
2022-08-23T09:12:46.435Z,3.77
2022-08-23T09:13:48.961Z,3.52
2022-08-23T09:14:51.836Z,3.46
2022-08-23T09:15:54.502Z,4.29
2022-08-23T09:16:57.529Z,3.14
2022-08-23T09:18:00.213Z,3.28
2022-08-23T09:19:02.968Z,2.81
2022-08-23T09:20:05.838Z,3.12
2022-08-23T09:21:08.370Z,3.27
2022-08-23T09:22:11.187Z,3.05
2022-08-23T09:23:13.766Z,2.73
2022-08-23T09:24:16.427Z,2.87
2022-08-23T09:25:19.041Z,2.92
2022-08-23T09:26:22.165Z,2.68
2022-08-23T09:27:24.731Z,2.67
2022-08-23T09:28:27.296Z,2.61
2022-08-23T09:29:30.074Z,2.93
2022-08-23T09:30:33.557Z,2.61
2022-08-23T09:31:36.172Z,2.67
2022-08-23T09:32:38.826Z,2.62
2022-08-23T09:33:41.465Z,4.05
2022-08-23T09:34:44.029Z,2.45
2022-08-23T09:35:46.654Z,3.01
2022-08-23T09:36:52.307Z,2.88
2022-08-23T09:37:55.212Z,2.85
2022-08-23T09:38:57.882Z,2.68
2022-08-23T09:40:00.509Z,2.57
2022-08-23T09:41:03.220Z,2.75
2022-08-23T09:42:05.892Z,2.89
2022-08-23T09:43:08.554Z,2.62
2022-08-23T09:44:11.124Z,2.45
2022-08-23T09:45:13.696Z,2.80
2022-08-23T09:46:16.943Z,2.38
2022-08-23T09:47:19.644Z,3.14
2022-08-23T09:48:22.213Z,2.90
2022-08-23T09:49:24.838Z,2.67
2022-08-23T09:50:28.262Z,2.71
2022-08-23T09:51:30.833Z,2.89
2022-08-23T09:52:33.426Z,2.70
2022-08-23T09:53:41.412Z,2.33
2022-08-23T09:54:43.986Z,2.68
2022-08-23T09:55:45.091Z,2.34
2022-08-23T09:56:47.859Z,2.35
2022-08-23T09:57:50.447Z,2.82
2022-08-23T09:58:53.200Z,2.53
2022-08-23T09:59:55.770Z,2.89
2022-08-23T10:00:58.497Z,2.62
2022-08-23T10:02:02.315Z,2.95
2022-08-23T10:03:05.577Z,3.09
2022-08-23T10:04:08.185Z,2.99
2022-08-23T10:05:14.856Z,3.43
2022-08-23T10:06:16.861Z,3.48
2022-08-23T10:07:19.470Z,2.97
2022-08-23T10:08:22.139Z,2.52
2022-08-23T10:09:24.668Z,3.30
2022-08-23T10:10:29.015Z,2.59
2022-08-23T10:11:31.541Z,2.79
2022-08-23T10:12:34.413Z,2.68
2022-08-23T10:13:37.028Z,2.43
2022-08-23T10:14:39.691Z,2.53
2022-08-23T10:15:44.331Z,3.25
2022-08-23T10:16:47.488Z,2.22
2022-08-23T10:17:50.068Z,2.66
2022-08-23T10:18:52.623Z,2.45
2022-08-23T10:19:55.148Z,2.39
2022-08-23T10:20:58.087Z,2.66
2022-08-23T10:22:00.876Z,2.71
2022-08-23T10:23:03.838Z,2.77
2022-08-23T10:24:06.443Z,2.71
2022-08-23T10:25:09.006Z,2.65
2022-08-23T10:26:12.105Z,2.83
2022-08-23T10:27:15.184Z,3.83
2022-08-23T10:28:17.771Z,4.70
2022-08-23T10:29:20.340Z,3.80
2022-08-23T10:30:23.735Z,3.58
2022-08-23T10:31:26.351Z,3.92
2022-08-23T10:32:29.093Z,3.09
2022-08-23T10:33:31.741Z,3.05
2022-08-23T10:34:34.303Z,2.91
2022-08-23T10:35:36.931Z,2.82
2022-08-23T10:36:39.752Z,2.64
2022-08-23T10:37:42.371Z,2.19
2022-08-23T10:38:44.980Z,2.10
2022-08-23T10:39:47.506Z,2.91
2022-08-23T10:40:50.619Z,3.54
2022-08-23T10:41:53.429Z,2.71
2022-08-23T10:42:56.371Z,3.28
2022-08-23T10:43:59.351Z,2.07
2022-08-23T10:45:01.928Z,2.62
2022-08-23T10:46:06.246Z,2.39
2022-08-23T10:47:08.847Z,2.01
2022-08-23T10:48:11.897Z,2.03
2022-08-23T10:49:14.576Z,2.17
2022-08-23T10:50:17.816Z,3.51
2022-08-23T10:51:31.219Z,2.41
2022-08-23T10:52:24.934Z,2.05
2022-08-23T10:53:28.487Z,3.59
2022-08-23T10:54:31.113Z,2.21
2022-08-23T10:55:33.722Z,1.88
2022-08-23T10:56:36.597Z,2.31
2022-08-23T10:57:39.197Z,2.33
2022-08-23T10:58:42.022Z,2.56
2022-08-23T10:59:44.675Z,3.06
2022-08-23T11:00:47.478Z,3.81
2022-08-23T11:01:50.232Z,2.35
2022-08-23T11:02:53.027Z,2.10
2022-08-23T11:03:55.919Z,2.25
2022-08-23T11:04:58.488Z,2.33
2022-08-23T11:06:01.131Z,2.47
2022-08-23T11:07:03.800Z,2.75
2022-08-23T11:08:06.367Z,2.29
2022-08-23T11:09:08.935Z,1.77
2022-08-23T11:10:16.414Z,1.75
2022-08-23T11:11:16.739Z,2.28
2022-08-23T11:12:19.404Z,2.34
2022-08-23T11:13:22.010Z,2.97
2022-08-23T11:14:24.663Z,2.80
2022-08-23T11:15:27.237Z,2.39
2022-08-23T11:16:30.451Z,2.19
2022-08-23T11:17:33.011Z,2.75
2022-08-23T11:18:35.666Z,2.95
2022-08-23T11:19:38.414Z,2.44
2022-08-23T11:20:41.275Z,2.41
2022-08-23T11:21:43.836Z,2.25
2022-08-23T11:22:46.709Z,2.17
2022-08-23T11:23:49.436Z,2.15
2022-08-23T11:24:52.050Z,2.44
2022-08-23T11:25:54.719Z,2.59
2022-08-23T11:26:57.662Z,2.06
2022-08-23T11:28:00.325Z,2.07
2022-08-23T11:29:02.995Z,2.25
2022-08-23T11:30:06.007Z,2.61
2022-08-23T11:31:08.771Z,2.77
2022-08-23T11:32:11.650Z,3.01
2022-08-23T11:33:14.549Z,3.21
2022-08-23T11:34:17.297Z,3.07
2022-08-23T11:35:19.864Z,2.78
2022-08-23T11:36:23.254Z,2.64
2022-08-23T11:37:25.816Z,3.46
2022-08-23T11:38:28.491Z,3.37
2022-08-23T11:39:30.982Z,2.78
2022-08-23T11:40:33.861Z,3.19
2022-08-23T11:41:37.518Z,3.12
2022-08-23T11:42:40.217Z,4.07
2022-08-23T11:43:43.127Z,6.21
2022-08-23T11:44:45.735Z,11.86
2022-08-23T11:45:48.284Z,10.05
2022-08-23T11:46:51.092Z,7.03
2022-08-23T11:47:53.695Z,5.83
2022-08-23T11:48:56.214Z,4.95
2022-08-23T11:49:58.770Z,3.39
2022-08-23T11:51:01.851Z,3.77
2022-08-23T11:52:04.532Z,3.91
2022-08-23T11:53:07.187Z,3.13
2022-08-23T11:54:09.712Z,3.64
2022-08-23T11:55:12.281Z,2.87
2022-08-23T11:56:16.115Z,2.96
2022-08-23T11:57:18.641Z,3.88
2022-08-23T11:58:21.762Z,3.22
2022-08-23T11:59:24.333Z,3.48
2022-08-23T12:00:29.316Z,3.44
2022-08-23T12:01:32.124Z,4.31
2022-08-23T12:02:35.270Z,4.31
2022-08-23T12:03:38.250Z,3.19
2022-08-23T12:04:41.157Z,3.12
2022-08-23T12:05:43.732Z,3.24
2022-08-23T12:06:50.476Z,2.99
2022-08-23T12:07:51.316Z,3.31
2022-08-23T12:08:53.880Z,4.03
2022-08-23T12:09:56.448Z,4.43
2022-08-23T12:10:59.323Z,3.46
2022-08-23T12:12:01.889Z,3.57
2022-08-23T12:13:04.430Z,2.81
2022-08-23T12:14:07.640Z,2.47
2022-08-23T12:15:10.231Z,2.31
2022-08-23T12:16:17.504Z,2.11
2022-08-23T12:17:20.025Z,1.60
2022-08-23T12:18:25.261Z,2.12
2022-08-23T12:19:29.072Z,1.43
2022-08-23T12:20:32.724Z,1.57
2022-08-23T12:21:36.930Z,1.35
2022-08-23T12:22:39.757Z,1.35
2022-08-23T12:23:42.420Z,1.91
2022-08-23T12:24:44.911Z,1.65
2022-08-23T12:25:47.854Z,2.08
2022-08-23T12:26:50.754Z,1.92
2022-08-23T12:27:53.335Z,5.02
2022-08-23T12:28:55.818Z,2.37
2022-08-23T12:29:58.533Z,2.12
2022-08-23T12:31:07.873Z,1.52
2022-08-23T12:32:05.714Z,1.85
2022-08-23T12:33:08.238Z,3.40
2022-08-23T12:34:10.882Z,2.57
2022-08-23T12:35:13.418Z,3.29
2022-08-23T12:36:16.842Z,3.03
2022-08-23T12:37:19.532Z,3.72
2022-08-23T12:38:22.532Z,2.29
2022-08-23T12:39:25.114Z,2.10
2022-08-23T12:40:27.890Z,1.78
2022-08-23T12:41:30.848Z,2.19
2022-08-23T12:42:34.453Z,2.14
2022-08-23T12:43:37.430Z,1.71
2022-08-23T12:44:39.995Z,3.60
2022-08-23T12:45:42.578Z,1.93
2022-08-23T12:46:45.716Z,2.15
2022-08-23T12:47:48.415Z,1.60
2022-08-23T12:48:50.979Z,1.81
2022-08-23T12:49:53.483Z,1.57
2022-08-23T12:50:56.727Z,1.51
2022-08-23T12:51:59.294Z,1.49
2022-08-23T12:53:02.088Z,1.43
2022-08-23T12:54:05.046Z,1.37
2022-08-23T12:55:07.671Z,1.25
2022-08-23T12:56:11.313Z,1.88
2022-08-23T12:57:13.976Z,1.25
2022-08-23T12:58:16.541Z,1.40
2022-08-23T12:59:19.181Z,2.10
2022-08-23T13:00:21.999Z,1.46
2022-08-23T13:01:24.685Z,1.61
2022-08-23T13:02:29.220Z,1.35
2022-08-23T13:03:31.844Z,1.52
2022-08-23T13:04:34.500Z,1.73
2022-08-23T13:05:37.067Z,1.26
2022-08-23T13:06:39.868Z,1.51
2022-08-23T13:07:44.359Z,1.21
2022-08-23T13:08:46.980Z,1.46
2022-08-23T13:09:53.159Z,1.78
2022-08-23T13:10:54.356Z,1.75
2022-08-23T13:11:57.431Z,1.55
2022-08-23T13:13:00.734Z,1.41
2022-08-23T13:14:03.747Z,1.27
2022-08-23T13:15:06.419Z,1.39
2022-08-23T13:16:09.495Z,1.17
2022-08-23T13:17:12.331Z,1.24
2022-08-23T13:18:15.304Z,1.49
2022-08-23T13:19:19.148Z,2.21
2022-08-23T13:20:22.179Z,2.03
2022-08-23T13:21:24.810Z,1.09
2022-08-23T13:22:27.456Z,1.16
2022-08-23T13:23:30.029Z,2.72
2022-08-23T13:24:38.001Z,1.56
2022-08-23T13:25:37.146Z,1.61
2022-08-23T13:26:39.976Z,1.22
2022-08-23T13:27:42.544Z,1.77
2022-08-23T13:28:45.112Z,2.19
2022-08-23T13:29:47.682Z,1.58
2022-08-23T13:30:50.933Z,1.64
2022-08-23T13:31:53.691Z,1.44
2022-08-23T13:32:56.448Z,1.52
2022-08-23T13:33:59.380Z,1.41
2022-08-23T13:35:03.544Z,2.03
2022-08-23T13:36:06.561Z,1.57
2022-08-23T13:37:11.072Z,2.22
2022-08-23T13:38:18.282Z,1.58
2022-08-23T13:39:18.179Z,1.44
2022-08-23T13:40:21.136Z,1.54
2022-08-23T13:41:24.785Z,1.87
2022-08-23T13:42:28.104Z,1.71
2022-08-23T13:43:30.777Z,1.75
2022-08-23T13:44:33.549Z,1.44
2022-08-23T13:45:36.427Z,1.76
2022-08-23T13:46:39.391Z,1.69
2022-08-23T13:47:42.023Z,1.41
2022-08-23T13:48:44.737Z,1.82
2022-08-23T13:49:48.635Z,1.60
2022-08-23T13:50:51.713Z,1.54
2022-08-23T13:51:54.379Z,1.53
2022-08-23T13:53:14.045Z,1.47
2022-08-23T13:54:01.465Z,1.83
2022-08-23T13:55:04.027Z,1.69
2022-08-23T13:56:06.742Z,1.54
2022-08-23T13:57:09.382Z,1.85
2022-08-23T13:58:12.165Z,1.67